TimeCST,TemperatureF,Dew PointF,Humidity,Sea Level PressureIn,VisibilityMPH,Wind Direction,Wind SpeedMPH,Gust SpeedMPH,PrecipitationIn,Events,Conditions,WindDirDegrees,DateUTC
12:52 AM,12.9,1.9,62,30.21,10.0,WSW,5.8,-,N/A,,Overcast,250,2013-01-21 06:52:00
1:52 AM,12.9,1.0,59,30.21,10.0,West,9.2,-,N/A,,Clear,280,2013-01-21 07:52:00
2:52 AM,12.0,1.0,61,30.20,10.0,West,12.7,20.7,N/A,,Overcast,280,2013-01-21 08:52:00
3:52 AM,12.0,-0.0,59,30.17,10.0,WNW,10.4,-,N/A,,Overcast,290,2013-01-21 09:52:00
4:52 AM,10.9,-2.0,56,30.17,10.0,WNW,12.7,21.9,N/A,,Mostly Cloudy,290,2013-01-21 10:52:00
5:52 AM,10.9,-0.0,61,30.17,10.0,West,13.8,20.7,N/A,,Overcast,280,2013-01-21 11:52:00
6:35 AM,10.4,-0.4,62,30.13,10.0,WNW,10.4,-,N/A,,Mostly Cloudy,290,2013-01-21 12:35:00
6:47 AM,10.4,-0.4,62,30.13,10.0,WNW,9.2,19.6,N/A,,Mostly Cloudy,290,2013-01-21 12:47:00
6:52 AM,10.0,-0.9,61,30.17,10.0,West,13.8,19.6,N/A,,Mostly Cloudy,280,2013-01-21 12:52:00
7:50 AM,8.6,1.4,73,30.15,1.8,WNW,10.4,-,0.00,Snow,Light Snow,300,2013-01-21 13:50:00
7:51 AM,9.0,1.9,73,30.19,1.8,WNW,11.5,-,0.00,Snow,Light Snow,300,2013-01-21 13:51:00
8:02 AM,8.6,1.4,73,30.15,1.2,WNW,10.4,-,0.00,Snow,Light Snow,290,2013-01-21 14:02:00
8:12 AM,8.6,-0.4,67,30.15,3.0,West,12.7,17.3,0.00,Snow,Light Snow,280,2013-01-21 14:12:00
8:52 AM,8.1,-0.9,67,30.21,6.0,West,15.0,23.0,0.00,,Haze,280,2013-01-21 14:52:00
9:49 AM,8.6,-0.4,67,30.18,5.0,WNW,17.3,27.6,N/A,,Haze,290,2013-01-21 15:49:00
9:52 AM,9.0,-0.9,64,30.22,3.0,West,16.1,27.6,0.00,Snow,Light Snow,280,2013-01-21 15:52:00
10:52 AM,7.0,-5.1,58,30.24,5.0,WNW,17.3,26.5,0.00,Snow,Light Snow,300,2013-01-21 16:52:00
11:30 AM,8.6,-4.0,57,30.18,3.0,WNW,17.3,27.6,0.00,,Haze,300,2013-01-21 17:30:00
11:42 AM,8.6,-5.8,52,30.18,3.0,WNW,17.3,26.5,0.00,,Haze,300,2013-01-21 17:42:00
11:52 AM,8.1,-5.1,55,30.22,8.0,WNW,17.3,24.2,0.00,Snow,Light Snow,290,2013-01-21 17:52:00
12:12 PM,10.4,-5.8,48,30.17,10.0,NW,19.6,24.2,N/A,,Mostly Cloudy,320,2013-01-21 18:12:00
12:52 PM,10.0,-8.0,44,30.21,10.0,WNW,18.4,26.5,N/A,,Mostly Cloudy,290,2013-01-21 18:52:00
1:52 PM,10.0,-9.0,42,30.22,10.0,WNW,19.6,26.5,N/A,,Clear,290,2013-01-21 19:52:00
2:52 PM,10.0,-8.0,44,30.22,10.0,West,18.4,26.5,N/A,,Partly Cloudy,280,2013-01-21 20:52:00
3:52 PM,10.0,-8.0,44,30.23,10.0,WNW,16.1,24.2,N/A,,Partly Cloudy,290,2013-01-21 21:52:00
4:52 PM,8.1,-8.0,48,30.24,10.0,WNW,17.3,28.8,N/A,,Clear,300,2013-01-21 22:52:00
5:52 PM,7.0,-8.0,51,30.26,10.0,WNW,11.5,20.7,N/A,,Clear,290,2013-01-21 23:52:00
6:52 PM,6.1,-8.0,53,30.27,10.0,WNW,9.2,19.6,N/A,,Clear,290,2013-01-22 00:52:00
7:52 PM,5.0,-9.0,52,30.28,10.0,WNW,10.4,24.2,N/A,,Clear,290,2013-01-22 01:52:00
8:52 PM,3.9,-9.9,53,30.31,10.0,WNW,13.8,23.0,N/A,,Clear,300,2013-01-22 02:52:00
9:52 PM,3.9,-9.0,55,30.31,10.0,WNW,11.5,20.7,N/A,,Clear,300,2013-01-22 03:52:00
10:52 PM,3.0,-9.0,57,30.31,10.0,WNW,13.8,20.7,N/A,,Scattered Clouds,300,2013-01-22 04:52:00
11:40 PM,3.2,-9.4,56,30.27,10.0,WNW,15.0,-,N/A,,Partly Cloudy,300,2013-01-22 05:40:00
11:52 PM,3.0,-9.0,57,30.31,10.0,WNW,12.7,-,N/A,,Scattered Clouds,300,2013-01-22 05:52:00